createdAt,value
2018-09-18T04:29:10.031Z,75.60
2018-09-18T04:31:40.105Z,75.40
2018-09-18T04:34:09.812Z,75.20
2018-09-18T04:36:38.378Z,75.30
2018-09-18T04:39:09.008Z,75.80
2018-09-18T04:41:37.591Z,75.50
2018-09-18T04:44:06.713Z,75.80
2018-09-18T04:46:36.749Z,75.80
2018-09-18T04:49:05.367Z,76.70
2018-09-18T04:51:33.935Z,77.30
2018-09-18T04:54:02.483Z,77.10
2018-09-18T04:56:30.999Z,78.00
2018-09-18T04:58:59.570Z,78.40
2018-09-18T05:01:28.114Z,77.70
2018-09-18T05:03:56.751Z,76.80
2018-09-18T05:06:25.368Z,76.60
2018-09-18T05:08:54.113Z,76.00
2018-09-18T05:11:22.662Z,75.30
2018-09-18T05:13:51.220Z,75.20
2018-09-18T05:16:19.777Z,74.50
2018-09-18T05:18:48.409Z,74.60
2018-09-18T05:21:16.949Z,75.60
2018-09-18T05:23:45.493Z,75.50
2018-09-18T05:26:14.050Z,75.30
2018-09-18T05:28:42.626Z,76.10
2018-09-18T05:31:11.188Z,78.40
2018-09-18T05:33:39.786Z,79.00
2018-09-18T05:36:08.327Z,79.60
2018-09-18T05:38:36.882Z,80.60
2018-09-18T05:41:05.405Z,80.10
2018-09-18T05:43:34.072Z,79.40
2018-09-18T05:46:02.580Z,79.50
2018-09-18T05:48:34.992Z,77.90
2018-09-18T05:51:04.067Z,78.20
2018-09-18T05:53:32.583Z,78.40
2018-09-18T05:56:01.127Z,77.80
2018-09-18T05:58:29.948Z,77.20
2018-09-18T06:00:58.574Z,77.60
2018-09-18T06:03:27.090Z,78.90
2018-09-18T06:05:55.587Z,80.50
2018-09-18T06:08:24.140Z,81.10
2018-09-18T06:10:52.679Z,82.00
2018-09-18T06:13:21.243Z,81.90
2018-09-18T06:15:49.764Z,82.00
2018-09-18T06:18:18.272Z,83.10
2018-09-18T06:20:46.815Z,83.70
2018-09-18T06:23:15.375Z,83.50
2018-09-18T06:25:43.915Z,82.90
2018-09-18T06:28:12.441Z,83.20
2018-09-18T06:30:41.038Z,82.30
2018-09-18T06:33:09.746Z,81.80
2018-09-18T06:35:38.336Z,81.80
2018-09-18T06:38:06.965Z,83.60
2018-09-18T06:40:35.521Z,85.60
2018-09-18T06:43:04.040Z,86.30
2018-09-18T06:45:32.738Z,86.80
2018-09-18T06:48:01.378Z,85.10
2018-09-18T06:50:29.910Z,84.30
2018-09-18T06:52:58.488Z,83.70
2018-09-18T06:55:27.788Z,85.10
2018-09-18T06:57:56.328Z,84.30
2018-09-18T16:09:39.596Z,39.20
2018-09-18T16:12:08.813Z,39.20
2018-09-18T16:14:37.642Z,39.60
2018-09-18T16:17:13.754Z,39.80
2018-09-18T16:19:42.656Z,40.10
2018-09-18T16:22:15.305Z,40.60
2018-09-18T16:24:45.221Z,40.80
2018-09-18T16:27:13.846Z,41.00
2018-09-18T16:29:46.013Z,41.40
2018-09-18T16:32:17.864Z,41.40
2018-09-18T16:34:46.445Z,41.40
2018-09-18T16:37:15.098Z,41.90
2018-09-18T16:39:43.669Z,41.80
2018-09-18T16:42:12.882Z,42.10
2018-09-18T16:44:44.178Z,42.30
2018-09-18T16:47:12.771Z,42.40
2018-09-18T16:49:41.308Z,42.20
2018-09-18T16:52:09.976Z,42.40
2018-09-18T16:54:38.675Z,42.90
2018-09-18T16:57:08.597Z,43.00
2018-09-18T16:59:37.283Z,43.20
2018-09-18T17:02:06.635Z,43.50
2018-09-18T17:04:35.321Z,44.20
2018-09-18T17:07:03.878Z,43.70
2018-09-18T17:09:32.660Z,44.10
2018-09-18T17:12:02.407Z,44.40
2018-09-18T17:14:32.418Z,44.70
2018-09-18T17:17:01.116Z,44.90
2018-09-18T17:19:32.032Z,45.20
2018-09-18T17:22:00.658Z,45.80
2018-09-18T17:24:30.017Z,46.50
2018-09-18T17:26:58.546Z,46.90
2018-09-18T17:29:27.468Z,47.40
2018-09-18T17:31:56.207Z,47.90
2018-09-18T17:34:24.859Z,48.40
2018-09-18T17:36:53.473Z,48.70
2018-09-18T17:39:22.067Z,49.20
2018-09-18T17:41:50.634Z,49.50
2018-09-18T17:44:19.218Z,49.80
2018-09-18T17:46:47.737Z,50.10
2018-09-18T17:49:16.343Z,50.30
2018-09-18T17:51:44.939Z,50.70
2018-09-18T17:54:13.504Z,50.90
2018-09-18T17:56:42.086Z,51.40
2018-09-18T17:59:10.690Z,51.70
2018-09-18T18:01:39.290Z,52.10
2018-09-18T18:04:07.886Z,52.90
2018-09-18T18:06:36.409Z,52.60
2018-09-18T18:09:07.465Z,52.60
2018-09-18T18:11:38.045Z,52.50
2018-09-18T18:14:07.203Z,53.20
2018-09-18T18:16:39.345Z,53.70
2018-09-18T18:19:08.467Z,53.80
2018-09-18T18:21:39.917Z,54.10
2018-09-18T18:24:10.546Z,54.20
2018-09-18T18:26:39.711Z,54.70
2018-09-18T18:29:13.428Z,54.90
2018-09-18T18:31:45.043Z,55.40
2018-09-18T18:34:15.686Z,55.70
2018-09-18T18:36:48.761Z,56.00
2018-09-18T18:39:17.559Z,56.10
2018-09-18T18:41:46.198Z,56.40
2018-09-18T18:44:15.730Z,56.50
2018-09-18T18:46:44.361Z,56.70
2018-09-18T18:49:13.063Z,56.90
2018-09-18T18:51:42.282Z,57.20
2018-09-18T18:54:12.688Z,57.30
2018-09-18T18:56:45.955Z,57.30
2018-09-18T18:59:18.820Z,58.80
2018-09-18T19:01:49.418Z,60.10
2018-09-18T19:04:23.849Z,60.30
2018-09-18T19:06:54.399Z,59.70
2018-09-18T19:09:22.990Z,60.60
2018-09-18T19:12:07.298Z,60.30
2018-09-18T19:14:54.454Z,59.50
2018-09-18T19:17:29.965Z,59.90
2018-09-18T19:19:58.997Z,60.20
2018-09-18T19:22:27.985Z,61.30
2018-09-18T19:24:57.203Z,61.80
2018-09-18T19:27:26.485Z,61.80
2018-09-18T19:29:58.564Z,61.60
2018-09-18T19:32:29.499Z,61.50
2018-09-18T19:35:02.444Z,61.20
2018-09-18T19:37:31.720Z,61.50
2018-09-18T19:40:01.548Z,61.70
2018-09-18T19:42:30.438Z,61.70
2018-09-18T19:44:59.176Z,61.80
2018-09-18T19:47:32.580Z,62.10
2018-09-18T19:50:01.461Z,62.50
2018-09-18T19:52:30.181Z,62.50
2018-09-18T19:55:06.096Z,62.50
2018-09-18T19:57:39.685Z,62.60
2018-09-18T20:00:14.420Z,63.30
2018-09-18T20:02:44.301Z,63.60
2018-09-18T20:05:13.929Z,64.20
2018-09-18T20:07:42.671Z,64.20
2018-09-18T20:10:11.749Z,64.00
2018-09-18T20:12:41.294Z,64.20
2018-09-18T20:15:10.551Z,64.00
2018-09-18T20:17:40.796Z,64.30
2018-09-18T20:20:10.228Z,64.70
2018-09-18T20:22:40.171Z,64.70
2018-09-18T20:25:09.509Z,64.50
2018-09-18T20:27:39.301Z,64.60
2018-09-18T20:30:08.206Z,64.60
2018-09-18T20:32:37.844Z,65.00
2018-09-18T20:35:10.364Z,65.20
2018-09-18T20:37:39.441Z,65.60
2018-09-18T20:40:11.963Z,65.70
2018-09-18T20:42:50.717Z,65.60
2018-09-18T20:45:20.614Z,65.80
2018-09-18T20:47:51.448Z,66.10
2018-09-18T20:50:23.931Z,66.00
2018-09-18T20:52:55.660Z,66.40
2018-09-18T20:55:26.090Z,66.40
2018-09-18T20:58:00.132Z,66.90
2018-09-18T21:00:32.913Z,67.30
2018-09-18T21:03:05.909Z,68.00
2018-09-18T21:05:37.608Z,67.90
2018-09-18T21:08:11.328Z,68.30
2018-09-18T21:10:39.926Z,68.20
2018-09-18T21:13:08.560Z,68.20
2018-09-18T21:15:37.623Z,67.90
2018-09-18T21:18:07.979Z,68.30
2018-09-18T21:20:39.305Z,68.50
2018-09-18T21:23:08.583Z,68.40
2018-09-18T21:26:12.365Z,68.50
2018-09-18T21:28:45.304Z,68.50
2018-09-18T21:31:14.160Z,68.70
2018-09-18T21:33:43.140Z,68.80
2018-09-18T21:36:12.766Z,68.90
2018-09-18T21:38:41.429Z,69.00
2018-09-18T21:41:11.309Z,69.40
2018-09-18T21:43:39.927Z,69.30
2018-09-18T21:46:10.053Z,69.20
2018-09-18T21:48:39.797Z,69.50
2018-09-18T21:51:08.747Z,69.60
2018-09-18T21:53:37.424Z,69.90
2018-09-18T21:56:07.388Z,70.60
